MET6439 - Geneva to Manchester

Boeing 737-800
G-FLII - Fly UK
1 hr 30 mins
537 nm
Fly UK Codeshare - SU | M | W | F

Departure

Departing from
Geneva (GVA)
Departure gate
15
Scheduled Departure
GMT 1720
Local 1820
METAR LSGG 191820Z 23003KT CAVOK 07/M02 Q1024 NOSIG
TAF TAF LSGG 191725Z 1918/2024 23006KT CAVOK TX10/2015Z TNM01/2006Z PROB30 TEMPO 2004/2008 0700 FZFG VV003 BECMG 2019/2021 BKN040
  • No charts available

Arrival

Arriving at
Manchester (MAN)
Arrival gate
Scheduled Arrival
GMT 1850
Local 1850
METAR EGCC 191750Z AUTO 26006KT 9999 BKN005 OVC009 10/09 Q1019 TEMPO SCT005
TAF TAF AMD EGCC 191755Z 1918/2024 26007KT 9999 SCT008 BKN020 TEMPO 1918/1924 4000 DZ BR BKN004 PROB30 TEMPO 2000/2008 1200 DZ BR BKN001 TEMPO 2008/2021 8000 BKN012 PROB30 TEMPO 2009/2018 29015G25KT PROB30 TEMPO 2012/2021 4000 RA BR BKN004

Route Map

Planning Resources

LSGG DIPI5A DIPIR UB37 IBABA UZ124 OBURO UH10 CHABY UM733 KOPOR UY376 VESAN UL613 SANDY UN57 WELIN TNT DAYN2A OSNAP FI23R EGCC
DIPIR UB37 IBABA UZ124 OBURO UH10 CHABY UM733 KOPOR UY376 VESAN UL613 SANDY UN57 WELIN TNT
DIPIR UB37 IBABA UZ124 OBURO UH10 CHABY UM733 LAULY UH37 BRY UM733 UTELA/N0444F400 UM733 KOPOR UM976 ABNUR UT10 ALESO
Route:
OFP Layout:
Units:
Detailed Navlog:
ETOPS Planning:
Plan Stepclimbs:
Runway Analysis:
Include NOTAMS:
FIR NOTAMS:
Flight Maps:

Return Flights

MET6438 (Operated by Fly UK)
Boeing 737-800
1515 GMT

Popularity

Hub Current Bids PiReps this month Total PiReps
KMCI 0 0 0
KLAX 0 0 2
KBOS 0 0 0